createdAt,value
2022-08-12T00:01:03.134Z,18.43
2022-08-12T00:03:51.084Z,18.42
2022-08-12T00:06:39.329Z,18.39
2022-08-12T00:09:26.834Z,18.39
2022-08-12T00:12:15.196Z,18.35
2022-08-12T00:15:04.067Z,18.28
2022-08-12T00:17:50.555Z,18.24
2022-08-12T00:20:36.726Z,18.25
2022-08-12T00:23:22.381Z,18.14
2022-08-12T00:26:22.951Z,18.18
2022-08-12T00:29:11.923Z,18.10
2022-08-12T00:32:00.317Z,17.52
2022-08-12T00:34:47.804Z,18.08
2022-08-12T00:37:36.300Z,18.03
2022-08-12T00:40:25.483Z,17.95
2022-08-12T00:42:53.602Z,18.00
2022-08-12T00:45:20.935Z,18.00
2022-08-12T00:47:49.440Z,17.91
2022-08-12T00:50:20.227Z,17.96
2022-08-12T00:52:49.196Z,17.97
2022-08-12T00:55:18.031Z,18.03
2022-08-12T00:57:48.706Z,17.82
2022-08-12T01:00:21.605Z,17.90
2022-08-12T01:02:57.717Z,17.83
2022-08-12T01:05:45.042Z,17.86
2022-08-12T01:08:50.912Z,17.86
2022-08-12T01:11:33.150Z,17.80
2022-08-12T01:14:02.684Z,17.81
2022-08-12T01:16:30.407Z,17.83
2022-08-12T01:19:00.581Z,17.83
2022-08-12T01:21:27.869Z,17.82
2022-08-12T01:24:34.115Z,17.79
2022-08-12T01:27:07.547Z,17.70
2022-08-12T01:29:41.953Z,17.75
2022-08-12T01:32:14.602Z,17.80
2022-08-12T01:35:05.893Z,17.83
2022-08-12T01:37:37.317Z,17.61
2022-08-12T01:40:34.587Z,17.77
2022-08-12T01:42:58.746Z,17.77
2022-08-12T01:45:29.650Z,17.77
2022-08-12T01:48:32.359Z,17.73
2022-08-12T01:52:04.514Z,17.74
2022-08-12T01:54:30.641Z,17.70
2022-08-12T01:57:13.662Z,17.65
2022-08-12T02:00:12.393Z,17.64
2022-08-12T02:02:57.874Z,17.64
2022-08-12T02:06:01.173Z,17.69
2022-08-12T02:09:10.819Z,17.68
2022-08-12T02:12:00.604Z,17.66
2022-08-12T02:14:51.243Z,17.67
2022-08-12T02:17:55.397Z,17.65
2022-08-12T02:20:51.969Z,17.64
2022-08-12T02:23:27.177Z,17.59
2022-08-12T02:26:20.917Z,17.57
2022-08-12T02:28:48.981Z,17.60
2022-08-12T02:31:16.454Z,17.58
2022-08-12T02:33:47.703Z,17.54
2022-08-12T02:36:16.555Z,17.47
2022-08-12T02:38:45.004Z,17.49
2022-08-12T02:41:17.045Z,17.38
2022-08-12T02:44:08.586Z,17.41
2022-08-12T02:46:36.953Z,17.34
2022-08-12T02:49:16.191Z,17.40
2022-08-12T02:51:44.448Z,17.38
2022-08-12T02:54:12.081Z,17.36
2022-08-12T02:56:41.920Z,17.27
2022-08-12T02:59:20.811Z,17.22
2022-08-12T03:01:54.514Z,17.19
2022-08-12T03:04:30.013Z,17.09
2022-08-12T03:07:09.935Z,17.09
2022-08-12T03:10:05.160Z,17.00
2022-08-12T03:12:40.094Z,16.98
2022-08-12T03:15:19.048Z,16.85
2022-08-12T03:18:28.682Z,16.94
2022-08-12T03:20:58.775Z,16.97
2022-08-12T03:23:29.723Z,16.99
2022-08-12T03:26:02.916Z,16.90
2022-08-12T03:28:54.195Z,16.90
2022-08-12T03:31:28.429Z,16.76
2022-08-12T03:34:06.555Z,16.84
2022-08-12T03:36:36.263Z,16.84
2022-08-12T03:39:15.532Z,16.85
2022-08-12T03:42:07.679Z,16.84
2022-08-12T03:45:00.649Z,16.86
2022-08-12T03:48:06.043Z,16.96
2022-08-12T03:50:51.943Z,16.99
2022-08-12T03:53:46.333Z,17.04
2022-08-12T03:56:32.755Z,16.96
2022-08-12T03:59:20.403Z,17.21
2022-08-12T04:01:57.940Z,17.33
2022-08-12T04:04:28.026Z,17.44
2022-08-12T04:06:58.199Z,17.52
2022-08-12T04:09:26.444Z,17.59
2022-08-12T04:12:12.178Z,17.60
2022-08-12T04:14:40.600Z,17.72
2022-08-12T04:17:08.584Z,17.73
2022-08-12T04:19:37.503Z,17.90
2022-08-12T04:22:04.984Z,17.93
2022-08-12T04:24:35.390Z,18.04
2022-08-12T04:27:08.879Z,18.03
2022-08-12T04:30:21.052Z,18.11
2022-08-12T04:32:26.065Z,18.29
2022-08-12T04:34:53.795Z,18.50
2022-08-12T04:37:21.421Z,18.47
2022-08-12T04:39:49.358Z,18.57
2022-08-12T04:42:16.589Z,18.60
2022-08-12T04:44:44.643Z,18.65
2022-08-12T04:47:13.299Z,18.78
2022-08-12T04:49:41.413Z,18.83
2022-08-12T04:52:10.491Z,18.94
2022-08-12T04:54:38.695Z,19.06
2022-08-12T04:57:09.682Z,19.12
2022-08-12T04:59:48.358Z,19.25
2022-08-12T05:02:22.810Z,19.30
2022-08-12T05:04:52.315Z,19.46
2022-08-12T05:07:21.071Z,19.52
2022-08-12T05:10:00.884Z,19.71
2022-08-12T05:12:38.178Z,19.79
2022-08-12T05:15:16.765Z,19.86
2022-08-12T05:17:56.206Z,20.04
2022-08-12T05:20:27.331Z,20.07
2022-08-12T05:23:13.804Z,20.29
2022-08-12T05:25:43.505Z,20.46
2022-08-12T05:28:13.183Z,20.68
2022-08-12T05:30:42.828Z,20.81
2022-08-12T05:33:12.119Z,20.90
2022-08-12T05:35:44.651Z,21.15
2022-08-12T05:38:37.210Z,21.24
2022-08-12T05:41:19.703Z,21.55
2022-08-12T05:43:52.441Z,21.69
2022-08-12T05:46:21.547Z,21.73
2022-08-12T05:48:50.149Z,21.79
2022-08-12T05:51:19.019Z,21.98
2022-08-12T05:53:47.055Z,22.11
2022-08-12T05:56:21.938Z,22.30
2022-08-12T05:58:51.589Z,22.45
2022-08-12T06:02:10.727Z,22.53
2022-08-12T06:04:12.442Z,22.48
2022-08-12T06:06:42.601Z,22.63
2022-08-12T06:09:11.806Z,22.74
2022-08-12T06:12:05.123Z,22.88
2022-08-12T06:14:29.122Z,23.01
2022-08-12T06:16:57.757Z,23.03
2022-08-12T06:20:27.771Z,23.12
2022-08-12T06:22:13.106Z,23.20
2022-08-12T06:24:40.211Z,23.28
2022-08-12T06:27:07.700Z,23.43
2022-08-12T06:30:07.273Z,23.53
2022-08-12T06:32:27.524Z,23.69
2022-08-12T06:35:26.020Z,23.80
2022-08-12T06:37:57.205Z,23.82
2022-08-12T06:40:44.054Z,23.96
2022-08-12T06:43:14.359Z,24.07
2022-08-12T06:45:47.472Z,24.12
2022-08-12T06:48:15.016Z,24.23
2022-08-12T06:50:42.777Z,24.51
2022-08-12T06:53:11.479Z,24.58
2022-08-12T06:55:56.734Z,24.66
2022-08-12T06:58:30.361Z,24.80
2022-08-12T07:00:59.316Z,24.80
2022-08-12T07:03:31.070Z,24.76
2022-08-12T07:06:04.881Z,24.90
2022-08-12T07:08:34.724Z,25.12
2022-08-12T07:11:05.289Z,25.28
2022-08-12T07:14:12.557Z,25.29
2022-08-12T07:16:46.460Z,25.36
2022-08-12T07:19:14.194Z,25.45
2022-08-12T07:22:00.306Z,25.63
2022-08-12T07:24:30.008Z,25.78
2022-08-12T07:26:57.254Z,25.83
2022-08-12T07:30:00.036Z,25.89
2022-08-12T07:32:13.486Z,25.94
2022-08-12T07:34:43.585Z,26.03
2022-08-12T07:37:10.872Z,26.12
2022-08-12T07:39:50.974Z,26.01
2022-08-12T07:42:25.440Z,26.04
2022-08-12T07:44:53.941Z,26.08
2022-08-12T07:47:21.350Z,26.30
2022-08-12T07:50:05.585Z,26.37
2022-08-12T07:52:38.717Z,26.46
2022-08-12T07:55:07.746Z,26.52
2022-08-12T07:57:48.350Z,26.62
2022-08-12T08:00:16.211Z,26.66
2022-08-12T08:02:43.382Z,26.70
2022-08-12T08:05:10.465Z,26.70
2022-08-12T08:07:38.817Z,26.76
2022-08-12T08:10:10.877Z,26.82
2022-08-12T08:12:59.006Z,26.88
2022-08-12T08:15:58.937Z,26.97
2022-08-12T08:18:26.853Z,26.90
2022-08-12T08:20:56.421Z,27.01
2022-08-12T08:23:46.409Z,26.96
2022-08-12T08:26:15.752Z,27.04
2022-08-12T08:28:43.685Z,27.14
2022-08-12T08:31:12.881Z,27.10
2022-08-12T08:34:04.862Z,27.20
2022-08-12T08:36:29.518Z,27.13
2022-08-12T08:38:58.598Z,27.30
2022-08-12T08:42:16.728Z,27.24
2022-08-12T08:44:39.615Z,27.20
2022-08-12T08:47:08.591Z,27.26
2022-08-12T08:49:37.432Z,27.31
2022-08-12T08:52:06.788Z,27.44
2022-08-12T08:54:38.018Z,27.44
2022-08-12T08:57:08.361Z,27.54
2022-08-12T08:59:36.159Z,27.64
2022-08-12T09:02:03.758Z,27.83
2022-08-12T09:05:11.116Z,27.80
2022-08-12T09:10:09.328Z,27.69
2022-08-12T09:13:22.858Z,27.82
2022-08-12T09:18:41.168Z,28.06
2022-08-12T09:21:09.703Z,28.13
2022-08-12T09:23:58.735Z,28.24
2022-08-12T09:26:28.787Z,28.23
2022-08-12T09:29:00.601Z,28.26
2022-08-12T09:32:07.611Z,28.29
2022-08-12T09:34:28.171Z,28.25
2022-08-12T09:37:18.699Z,28.08
2022-08-12T09:40:01.921Z,28.23
2022-08-12T09:43:11.770Z,28.16
2022-08-12T09:46:11.237Z,28.29
2022-08-12T09:48:34.977Z,28.35
2022-08-12T09:51:10.699Z,28.27
2022-08-12T09:53:39.734Z,28.22
2022-08-12T09:56:58.551Z,28.34
2022-08-12T09:59:01.645Z,28.41
2022-08-12T10:01:35.140Z,28.58
2022-08-12T10:04:19.351Z,28.64
2022-08-12T10:06:55.231Z,28.76
2022-08-12T10:09:57.363Z,28.76
2022-08-12T10:12:32.960Z,28.44
2022-08-12T10:15:02.289Z,28.69
2022-08-12T10:17:30.293Z,28.69
2022-08-12T10:19:59.726Z,28.55
2022-08-12T10:22:38.952Z,28.54
2022-08-12T10:26:38.185Z,28.66
2022-08-12T10:28:38.450Z,28.78
2022-08-12T10:31:15.911Z,28.89
2022-08-12T10:34:06.228Z,29.00
2022-08-12T10:36:40.749Z,29.02
2022-08-12T10:40:01.941Z,29.18
2022-08-12T10:42:29.461Z,29.32
2022-08-12T10:45:06.067Z,29.43
2022-08-12T10:48:16.026Z,29.52
2022-08-12T10:50:28.581Z,29.69
2022-08-12T10:53:00.971Z,29.79
2022-08-12T10:55:28.454Z,29.89
2022-08-12T10:58:14.397Z,29.88
2022-08-12T11:00:55.002Z,30.02
2022-08-12T11:04:28.235Z,30.05
2022-08-12T11:07:08.082Z,30.03
2022-08-12T11:08:58.830Z,29.86
2022-08-12T11:12:34.672Z,29.74
2022-08-12T11:14:49.472Z,29.65
2022-08-12T11:17:34.317Z,29.76
2022-08-12T11:19:55.633Z,29.60
2022-08-12T11:22:24.117Z,29.75
2022-08-12T11:24:53.649Z,29.82
2022-08-12T11:27:22.572Z,29.88
2022-08-12T11:30:06.445Z,29.98
2022-08-12T11:32:38.863Z,29.84
2022-08-12T11:35:06.936Z,30.03
2022-08-12T11:37:58.177Z,30.18
2022-08-12T11:40:23.268Z,30.33
2022-08-12T11:42:51.857Z,30.33
2022-08-12T11:45:19.727Z,30.40
2022-08-12T11:47:47.413Z,30.44
2022-08-12T11:50:21.430Z,30.27
2022-08-12T11:52:59.644Z,30.22
2022-08-12T11:55:29.540Z,30.12
2022-08-12T11:58:33.304Z,30.18
2022-08-12T12:03:44.104Z,30.26
2022-08-12T12:06:16.774Z,30.21
2022-08-12T12:08:50.442Z,30.32
2022-08-12T12:11:19.285Z,30.29
2022-08-12T12:14:08.176Z,30.27
2022-08-12T12:16:39.584Z,30.19
2022-08-12T12:19:10.231Z,30.30
2022-08-12T12:21:48.016Z,30.48
2022-08-12T12:24:22.065Z,30.64
2022-08-12T12:27:00.457Z,30.77
2022-08-12T12:30:17.929Z,30.98
2022-08-12T12:32:28.842Z,30.88
2022-08-12T12:35:14.500Z,30.91
2022-08-12T12:38:04.590Z,30.71
2022-08-12T12:40:43.767Z,30.68
2022-08-12T12:43:12.890Z,30.59
2022-08-12T12:45:44.487Z,30.36
2022-08-12T12:48:21.462Z,30.28
2022-08-12T12:51:13.756Z,30.32
2022-08-12T12:54:08.797Z,30.54
2022-08-12T12:56:48.045Z,30.82
2022-08-12T12:59:55.202Z,30.89
2022-08-12T13:02:08.671Z,30.99
2022-08-12T13:04:37.802Z,31.24
2022-08-12T13:07:06.828Z,31.28
2022-08-12T13:09:36.003Z,31.35
2022-08-12T13:12:08.176Z,31.29
2022-08-12T13:14:35.408Z,31.29
2022-08-12T13:17:11.429Z,31.28
2022-08-12T13:19:48.224Z,31.35
2022-08-12T13:22:23.549Z,31.53
2022-08-12T13:24:56.441Z,31.38
2022-08-12T13:27:34.500Z,31.58
2022-08-12T13:30:07.042Z,31.59
2022-08-12T13:32:56.867Z,31.75
2022-08-12T13:36:02.904Z,31.70
2022-08-12T13:38:34.618Z,31.64
2022-08-12T13:41:04.085Z,31.72
2022-08-12T13:43:41.006Z,31.68
2022-08-12T13:46:13.475Z,31.78
2022-08-12T13:48:44.964Z,31.78
2022-08-12T13:51:14.254Z,31.66
2022-08-12T13:53:58.157Z,31.53
2022-08-12T13:56:30.569Z,31.16
2022-08-12T13:59:07.718Z,30.97
2022-08-12T14:01:40.264Z,30.63
2022-08-12T14:04:11.351Z,30.52
2022-08-12T14:06:40.639Z,30.32
2022-08-12T14:09:15.574Z,30.22
2022-08-12T14:11:59.014Z,30.16
2022-08-12T14:14:31.317Z,29.75
2022-08-12T14:17:10.215Z,30.01
2022-08-12T14:20:00.495Z,29.93
2022-08-12T14:22:28.999Z,29.78
2022-08-12T14:24:58.389Z,29.75
2022-08-12T14:28:02.634Z,29.72
2022-08-12T14:30:24.082Z,29.68
2022-08-12T14:33:46.492Z,29.31
2022-08-12T14:36:26.927Z,29.48
2022-08-12T14:38:56.096Z,29.59
2022-08-12T14:41:36.687Z,29.57
2022-08-12T14:44:59.839Z,29.58
2022-08-12T14:47:01.338Z,29.65
2022-08-12T14:50:33.872Z,29.76
2022-08-12T14:53:42.349Z,29.81
2022-08-12T14:58:01.841Z,30.05
2022-08-12T15:00:52.384Z,30.25
2022-08-12T15:03:52.790Z,30.28
2022-08-12T15:06:44.618Z,30.34
2022-08-12T15:09:05.105Z,30.45
2022-08-12T15:11:48.769Z,30.57
2022-08-12T15:14:21.370Z,30.52
2022-08-12T15:16:49.962Z,30.35
2022-08-12T15:20:00.083Z,30.26
2022-08-12T15:22:38.483Z,30.13
2022-08-12T15:24:52.817Z,29.98
2022-08-12T15:27:22.455Z,29.94
2022-08-12T15:29:59.479Z,29.88
2022-08-12T15:32:32.221Z,29.82
2022-08-12T15:35:02.985Z,29.84
2022-08-12T15:38:09.028Z,29.99
2022-08-12T15:40:30.123Z,30.11
2022-08-12T15:42:59.942Z,30.22
2022-08-12T15:45:32.219Z,30.31
2022-08-12T15:48:04.596Z,30.34
2022-08-12T15:50:45.771Z,30.34
2022-08-12T15:53:17.202Z,30.28
2022-08-12T15:55:49.385Z,30.22
2022-08-12T15:58:18.189Z,30.04
2022-08-12T16:00:48.739Z,30.07
2022-08-12T16:03:45.313Z,30.20
2022-08-12T16:06:18.998Z,30.46
2022-08-12T16:08:57.975Z,30.77
2022-08-12T16:11:26.777Z,31.17
2022-08-12T16:13:54.176Z,31.48
2022-08-12T16:16:24.394Z,31.74
2022-08-12T16:18:59.566Z,31.75
2022-08-12T16:21:52.719Z,31.62
2022-08-12T16:24:20.647Z,31.19
2022-08-12T16:26:51.465Z,30.85
2022-08-12T16:29:52.196Z,30.69
2022-08-12T16:32:24.090Z,30.44
2022-08-12T16:34:55.733Z,30.21
2022-08-12T16:37:32.411Z,30.05
2022-08-12T16:40:12.075Z,29.91
2022-08-12T16:42:42.157Z,29.79
2022-08-12T16:45:23.488Z,29.61
2022-08-12T16:48:01.767Z,29.43
2022-08-12T16:50:30.971Z,29.33
2022-08-12T16:52:59.868Z,29.25
2022-08-12T16:55:41.974Z,29.10
2022-08-12T16:58:28.244Z,28.98
2022-08-12T17:01:01.786Z,28.83
2022-08-12T17:03:32.435Z,28.73
2022-08-12T17:06:06.528Z,28.60
2022-08-12T17:08:33.973Z,28.44
2022-08-12T17:11:01.013Z,28.36
2022-08-12T17:13:29.415Z,28.23
2022-08-12T17:16:06.130Z,28.14
2022-08-12T17:18:56.857Z,28.06
2022-08-12T17:21:41.591Z,27.99
2022-08-12T17:24:15.163Z,27.85
2022-08-12T17:26:49.458Z,27.76
2022-08-12T17:29:32.119Z,27.59
2022-08-12T17:32:11.268Z,27.60
2022-08-12T17:34:56.982Z,27.49
2022-08-12T17:37:24.275Z,27.42
2022-08-12T17:40:13.645Z,27.33
2022-08-12T17:42:39.689Z,27.23
2022-08-12T17:45:17.473Z,27.23
2022-08-12T17:48:01.132Z,27.11
2022-08-12T17:50:34.804Z,27.12
2022-08-12T17:53:02.917Z,27.03
2022-08-12T17:55:43.483Z,26.56
2022-08-12T17:58:35.682Z,26.82
2022-08-12T18:01:11.348Z,26.76
2022-08-12T18:03:58.094Z,26.71
2022-08-12T18:06:28.476Z,26.62
2022-08-12T18:08:59.434Z,26.58
2022-08-12T18:12:03.892Z,26.46
2022-08-12T18:14:37.321Z,26.40
2022-08-12T18:17:08.862Z,26.34
2022-08-12T18:20:05.283Z,26.20
2022-08-12T18:22:31.640Z,26.24
2022-08-12T18:25:03.902Z,26.18
2022-08-12T18:27:44.251Z,26.06
2022-08-12T18:30:16.332Z,26.07
2022-08-12T18:32:54.175Z,25.97
2022-08-12T18:35:46.476Z,25.97
2022-08-12T18:38:20.068Z,25.89
2022-08-12T18:41:09.711Z,25.88
2022-08-12T18:43:58.872Z,25.80
2022-08-12T18:46:32.395Z,25.74
2022-08-12T18:49:18.762Z,25.71
2022-08-12T18:52:02.387Z,25.61
2022-08-12T18:54:35.349Z,25.56
2022-08-12T18:57:19.975Z,25.44
2022-08-12T19:00:06.807Z,25.36
2022-08-12T19:02:40.704Z,25.36
2022-08-12T19:05:14.388Z,25.31
2022-08-12T19:07:49.686Z,25.27
2022-08-12T19:10:26.148Z,25.20
2022-08-12T19:13:21.015Z,25.17
2022-08-12T19:15:50.935Z,25.01
2022-08-12T19:18:22.035Z,24.90
2022-08-12T19:20:50.373Z,24.85
2022-08-12T19:23:21.440Z,24.78
2022-08-12T19:26:01.024Z,24.74
2022-08-12T19:28:34.808Z,24.73
2022-08-12T19:31:56.719Z,24.60
2022-08-12T19:35:32.859Z,24.50
2022-08-12T19:37:26.679Z,24.26
2022-08-12T19:40:09.227Z,24.27
2022-08-12T19:42:53.480Z,24.24
2022-08-12T19:45:22.207Z,24.24
2022-08-12T19:47:49.509Z,24.12
2022-08-12T19:50:20.243Z,24.09
2022-08-12T19:52:53.051Z,23.91
2022-08-12T19:55:22.728Z,23.88
2022-08-12T19:58:03.036Z,23.72
2022-08-12T20:00:34.699Z,23.66
2022-08-12T20:03:04.723Z,23.50
2022-08-12T20:06:06.528Z,23.49
2022-08-12T20:08:34.236Z,23.37
2022-08-12T20:12:11.210Z,22.90
2022-08-12T20:14:00.590Z,23.40
2022-08-12T20:16:57.267Z,23.33
2022-08-12T20:19:53.030Z,23.27
2022-08-12T20:22:29.459Z,23.17
2022-08-12T20:25:10.518Z,23.17
2022-08-12T20:28:02.914Z,23.12
2022-08-12T20:30:37.323Z,23.08
2022-08-12T20:33:50.339Z,23.03
2022-08-12T20:36:41.207Z,22.90
2022-08-12T20:39:05.402Z,22.80
2022-08-12T20:41:58.663Z,22.78
2022-08-12T20:44:27.393Z,22.71
2022-08-12T20:46:58.238Z,22.56
2022-08-12T20:49:25.662Z,22.53
2022-08-12T20:51:59.387Z,22.48
2022-08-12T20:54:33.993Z,22.42
2022-08-12T20:57:07.371Z,22.40
2022-08-12T20:59:49.654Z,22.30
2022-08-12T21:02:24.330Z,22.26
2022-08-12T21:05:20.335Z,22.29
2022-08-12T21:07:52.297Z,22.27
2022-08-12T21:10:20.739Z,22.22
2022-08-12T21:12:50.847Z,22.23
2022-08-12T21:15:30.157Z,22.13
2022-08-12T21:18:11.299Z,21.93
2022-08-12T21:20:51.560Z,21.89
2022-08-12T21:23:21.500Z,21.83
2022-08-12T21:25:51.145Z,21.79
2022-08-12T21:28:20.772Z,21.82
2022-08-12T21:31:11.360Z,21.87
2022-08-12T21:33:58.548Z,21.83
2022-08-12T21:36:34.431Z,21.74
2022-08-12T21:39:18.582Z,21.69
2022-08-12T21:41:53.979Z,21.67
2022-08-12T21:45:46.567Z,21.61
2022-08-12T21:47:21.609Z,21.53
2022-08-12T21:50:04.005Z,21.47
2022-08-12T21:52:43.378Z,21.37
2022-08-12T21:55:17.705Z,21.31
2022-08-12T21:57:54.394Z,21.28
2022-08-12T22:00:36.794Z,21.24
2022-08-12T22:04:03.229Z,21.18
2022-08-12T22:06:26.191Z,21.23
2022-08-12T22:09:02.717Z,21.16
2022-08-12T22:11:41.813Z,21.11
2022-08-12T22:14:21.264Z,20.81
2022-08-12T22:16:51.208Z,20.93
2022-08-12T22:19:19.834Z,20.94
2022-08-12T22:21:54.592Z,20.99
2022-08-12T22:24:27.131Z,20.98
2022-08-12T22:27:28.241Z,20.91
2022-08-12T22:30:16.954Z,20.86
2022-08-12T22:32:51.645Z,20.83
2022-08-12T22:35:55.661Z,20.84
2022-08-12T22:38:25.018Z,20.77
2022-08-12T22:41:01.871Z,20.74
2022-08-12T22:44:00.034Z,20.73
2022-08-12T22:46:34.819Z,20.80
2022-08-12T22:49:02.147Z,20.77
2022-08-12T22:51:59.848Z,20.66
2022-08-12T22:54:35.234Z,20.64
2022-08-12T22:57:11.894Z,20.47
2022-08-12T22:59:55.370Z,20.47
2022-08-12T23:02:29.041Z,20.51
2022-08-12T23:04:58.251Z,20.41
2022-08-12T23:07:25.523Z,20.42
2022-08-12T23:09:54.795Z,20.41
2022-08-12T23:12:46.958Z,20.29
2022-08-12T23:15:16.303Z,20.34
2022-08-12T23:17:43.625Z,20.27
2022-08-12T23:20:15.069Z,20.31
2022-08-12T23:22:43.962Z,20.22
2022-08-12T23:25:32.531Z,20.28
2022-08-12T23:28:37.179Z,20.18
2022-08-12T23:31:06.556Z,20.16
2022-08-12T23:34:00.107Z,20.14
2022-08-12T23:36:39.411Z,20.11
2022-08-12T23:40:06.851Z,20.13
2022-08-12T23:42:17.547Z,20.06
2022-08-12T23:44:48.693Z,20.01
2022-08-12T23:47:21.463Z,20.01
2022-08-12T23:49:58.640Z,19.99
2022-08-12T23:52:34.763Z,20.00
2022-08-12T23:55:23.262Z,19.98
2022-08-12T23:58:17.301Z,19.86
